Time;durP1;ratioP1;P1;durP2;ratioP2;P2;SDS_P1;SDS_P2;PMS_P1;PMS_P2;Temp;Humidity;BMP_temperature;BMP_pressure;BME280_temperature;BME280_humidity;BME280_pressure;Samples;Min_cycle;Max_cycle;Signal;HPM_P1;HPM_P2
2023/12/03 00:00:08;;;;;;;28.20;14.80;;;;;;;;;;5074001;28;20420;-74
2023/12/03 00:02:38;;;;;;;29.85;15.30;;;;;;;;;;5076566;28;20407;-74
2023/12/03 00:05:04;;;;;;;30.35;15.55;;;;;;;;;;5071467;28;20452;-74
2023/12/03 00:07:31;;;;;;;29.77;15.55;;;;;;;;;;5054091;28;20465;-75
2023/12/03 00:09:58;;;;;;;29.77;15.65;;;;;;;;;;5074975;28;20945;-74
2023/12/03 00:12:24;;;;;;;27.45;14.80;;;;;;;;;;5087099;28;20455;-74
2023/12/03 00:14:50;;;;;;;29.40;15.82;;;;;;;;;;5086695;28;20830;-74
2023/12/03 00:17:16;;;;;;;29.30;15.27;;;;;;;;;;5081823;28;20492;-75
2023/12/03 00:19:42;;;;;;;27.75;15.43;;;;;;;;;;5078534;28;20736;-74
2023/12/03 00:22:09;;;;;;;26.50;14.98;;;;;;;;;;5078124;28;20405;-74
2023/12/03 00:24:35;;;;;;;21.88;13.10;;;;;;;;;;5067421;28;20451;-74
2023/12/03 00:27:01;;;;;;;25.52;13.93;;;;;;;;;;5071674;28;20430;-74
2023/12/03 00:29:27;;;;;;;27.40;14.60;;;;;;;;;;5087857;28;20408;-75
2023/12/03 00:31:53;;;;;;;26.48;14.38;;;;;;;;;;5070194;28;20428;-75
2023/12/03 00:34:20;;;;;;;25.63;14.25;;;;;;;;;;5070218;28;20414;-74
2023/12/03 00:36:46;;;;;;;25.90;14.95;;;;;;;;;;5054016;28;20404;-74
2023/12/03 00:39:12;;;;;;;25.50;14.63;;;;;;;;;;5069904;28;20403;-74
2023/12/03 00:41:38;;;;;;;22.05;13.02;;;;;;;;;;5073571;28;20405;-74
2023/12/03 00:44:05;;;;;;;20.25;13.13;;;;;;;;;;5080824;28;20937;-74
2023/12/03 00:46:31;;;;;;;21.55;12.15;;;;;;;;;;5070681;28;20495;-74
2023/12/03 00:48:57;;;;;;;20.30;11.93;;;;;;;;;;5069254;28;20414;-75
2023/12/03 00:51:23;;;;;;;19.13;11.43;;;;;;;;;;5070733;28;20414;-75
2023/12/03 00:53:49;;;;;;;17.38;11.30;;;;;;;;;;5055498;28;20451;-75
2023/12/03 00:56:15;;;;;;;19.27;11.35;;;;;;;;;;5077887;28;20785;-75
2023/12/03 00:58:41;;;;;;;18.65;11.65;;;;;;;;;;5056878;28;20400;-73
2023/12/03 01:01:07;;;;;;;16.63;11.10;;;;;;;;;;5070167;28;20403;-74
2023/12/03 01:03:33;;;;;;;15.75;9.90;;;;;;;;;;5053728;28;20469;-74
2023/12/03 01:06:00;;;;;;;14.73;9.75;;;;;;;;;;5071021;28;20418;-74
2023/12/03 01:08:26;;;;;;;14.40;9.10;;;;;;;;;;5085048;28;20474;-74
2023/12/03 01:10:52;;;;;;;14.82;9.27;;;;;;;;;;5066620;28;20436;-74
2023/12/03 01:13:19;;;;;;;14.48;9.13;;;;;;;;;;5079345;28;20394;-74
2023/12/03 01:15:45;;;;;;;13.40;9.03;;;;;;;;;;5057053;28;20465;-74
2023/12/03 01:18:11;;;;;;;14.40;8.38;;;;;;;;;;5075545;28;20776;-74
2023/12/03 01:20:38;;;;;;;13.25;9.35;;;;;;;;;;5069629;28;20926;-73
2023/12/03 01:23:04;;;;;;;14.65;9.55;;;;;;;;;;5069983;28;20399;-74
2023/12/03 01:25:30;;;;;;;16.27;10.20;;;;;;;;;;5057936;28;20648;-74
2023/12/03 01:27:57;;;;;;;16.80;10.63;;;;;;;;;;5074097;28;20400;-74
2023/12/03 01:30:23;;;;;;;16.70;10.68;;;;;;;;;;5073692;28;20902;-74
2023/12/03 01:32:49;;;;;;;16.42;10.98;;;;;;;;;;5057088;28;20775;-73
2023/12/03 01:35:16;;;;;;;15.13;9.90;;;;;;;;;;5089069;28;20473;-74
2023/12/03 01:37:42;;;;;;;16.42;10.88;;;;;;;;;;5073625;28;20400;-74
2023/12/03 01:40:08;;;;;;;18.53;11.40;;;;;;;;;;5075814;28;20395;-74
2023/12/03 01:42:34;;;;;;;16.05;11.40;;;;;;;;;;5078699;28;20800;-74
2023/12/03 01:45:01;;;;;;;18.00;11.30;;;;;;;;;;5080909;28;20479;-74
2023/12/03 01:47:27;;;;;;;18.77;11.95;;;;;;;;;;5089840;28;20822;-74
2023/12/03 01:49:53;;;;;;;18.27;12.07;;;;;;;;;;5073524;28;20490;-74
2023/12/03 01:52:22;;;;;;;17.92;12.48;;;;;;;;;;5055097;28;20459;-74
2023/12/03 01:54:49;;;;;;;20.23;12.38;;;;;;;;;;5073649;28;20500;-74
2023/12/03 01:57:16;;;;;;;19.85;12.95;;;;;;;;;;5083600;28;20407;-74
2023/12/03 01:59:42;;;;;;;20.52;13.05;;;;;;;;;;5090981;28;20442;-74
2023/12/03 02:02:08;;;;;;;22.73;14.10;;;;;;;;;;5077359;28;20789;-73
2023/12/03 02:04:34;;;;;;;21.02;13.43;;;;;;;;;;5057045;28;20407;-73
2023/12/03 02:07:00;;;;;;;22.42;14.00;;;;;;;;;;5073326;28;20416;-73
2023/12/03 02:09:27;;;;;;;25.35;14.45;;;;;;;;;;5076772;28;20426;-73
2023/12/03 02:11:53;;;;;;;23.40;14.43;;;;;;;;;;5073288;28;20447;-73
2023/12/03 02:14:19;;;;;;;23.33;14.80;;;;;;;;;;5063766;28;20848;-73
2023/12/03 02:16:46;;;;;;;24.40;14.55;;;;;;;;;;5073175;28;20391;-73
2023/12/03 02:19:12;;;;;;;23.90;14.90;;;;;;;;;;5054257;28;20467;-74
2023/12/03 02:21:38;;;;;;;24.50;15.20;;;;;;;;;;5073069;28;20404;-74
2023/12/03 02:24:04;;;;;;;22.33;14.32;;;;;;;;;;5076386;28;20400;-73
2023/12/03 02:26:30;;;;;;;22.45;14.52;;;;;;;;;;5071541;28;20499;-73
2023/12/03 02:28:56;;;;;;;23.67;14.55;;;;;;;;;;5075463;28;20406;-74
2023/12/03 02:31:22;;;;;;;21.80;14.70;;;;;;;;;;5059895;28;20430;-73
2023/12/03 02:33:56;;;;;;;25.15;15.55;;;;;;;;;;5104402;27;20407;-74
2023/12/03 02:36:22;;;;;;;22.90;14.88;;;;;;;;;;5063769;28;20562;-73
2023/12/03 02:38:48;;;;;;;24.05;15.07;;;;;;;;;;5073580;28;20434;-74
2023/12/03 02:41:14;;;;;;;22.90;14.27;;;;;;;;;;5072850;28;20419;-74
2023/12/03 02:43:40;;;;;;;22.42;14.63;;;;;;;;;;5072232;28;20445;-74
2023/12/03 02:46:06;;;;;;;24.75;14.40;;;;;;;;;;5073979;28;20400;-74
2023/12/03 02:48:32;;;;;;;24.52;14.63;;;;;;;;;;5055836;28;20403;-73
2023/12/03 02:50:58;;;;;;;23.92;14.48;;;;;;;;;;5075038;28;20489;-73
2023/12/03 02:53:24;;;;;;;21.95;13.65;;;;;;;;;;5055365;28;20465;-73
2023/12/03 02:55:50;;;;;;;23.77;14.18;;;;;;;;;;5071126;28;21029;-73
2023/12/03 02:58:16;;;;;;;23.00;14.10;;;;;;;;;;5055637;28;20407;-73
2023/12/03 03:00:42;;;;;;;23.35;14.13;;;;;;;;;;5054144;28;20779;-73
2023/12/03 03:03:08;;;;;;;23.48;14.23;;;;;;;;;;5078803;28;20424;-73
2023/12/03 03:05:34;;;;;;;21.05;13.48;;;;;;;;;;5077002;28;20465;-74
2023/12/03 03:08:00;;;;;;;23.33;13.95;;;;;;;;;;5075888;28;20485;-74
2023/12/03 03:10:28;;;;;;;23.40;14.18;;;;;;;;;;5092522;28;20401;-73
2023/12/03 03:12:54;;;;;;;27.85;14.70;;;;;;;;;;5056668;28;20433;-74
2023/12/03 03:15:20;;;;;;;25.03;14.23;;;;;;;;;;5072355;28;20492;-74
2023/12/03 03:17:46;;;;;;;28.25;15.50;;;;;;;;;;5072193;28;20411;-74
2023/12/03 03:20:12;;;;;;;24.02;14.23;;;;;;;;;;5092184;28;20861;-74
2023/12/03 03:22:38;;;;;;;28.52;15.13;;;;;;;;;;5072055;28;20914;-74
2023/12/03 03:25:05;;;;;;;28.05;15.27;;;;;;;;;;5073791;28;20418;-74
2023/12/03 03:27:31;;;;;;;30.42;16.10;;;;;;;;;;5070789;28;20406;-74
2023/12/03 03:29:57;;;;;;;29.67;16.35;;;;;;;;;;5085724;28;20426;-74
2023/12/03 03:32:23;;;;;;;45.05;17.40;;;;;;;;;;5088435;28;20434;-74
2023/12/03 03:34:49;;;;;;;32.03;17.15;;;;;;;;;;5108573;27;20398;-74
2023/12/03 03:37:16;;;;;;;34.47;17.90;;;;;;;;;;5071614;28;20903;-75
2023/12/03 03:39:42;;;;;;;140.10;26.90;;;;;;;;;;5055243;28;20458;-74
2023/12/03 03:42:08;;;;;;;229.55;32.78;;;;;;;;;;5088398;28;20407;-74
2023/12/03 03:44:34;;;;;;;369.95;37.00;;;;;;;;;;5057376;28;20410;-75
2023/12/03 03:47:00;;;;;;;327.13;37.03;;;;;;;;;;5075111;28;20420;-74
2023/12/03 03:49:26;;;;;;;340.00;35.65;;;;;;;;;;5053814;28;20407;-74
2023/12/03 03:51:52;;;;;;;333.45;33.60;;;;;;;;;;5037721;28;20511;-74
2023/12/03 03:54:18;;;;;;;321.92;32.83;;;;;;;;;;5056004;28;20411;-74
2023/12/03 03:56:47;;;;;;;387.23;36.05;;;;;;;;;;5078041;28;20423;-75
2023/12/03 03:59:14;;;;;;;314.98;31.88;;;;;;;;;;5074070;28;20454;-75
2023/12/03 04:01:45;;;;;;;411.92;39.35;;;;;;;;;;5073350;28;20400;-74
2023/12/03 04:04:12;;;;;;;280.92;31.60;;;;;;;;;;5104528;28;20404;-75
2023/12/03 04:06:39;;;;;;;460.17;38.28;;;;;;;;;;5091688;28;20397;-75
2023/12/03 04:09:06;;;;;;;338.77;31.35;;;;;;;;;;5088968;28;20440;-75
2023/12/03 04:11:32;;;;;;;497.40;45.17;;;;;;;;;;5040496;28;20539;-75
2023/12/03 04:13:58;;;;;;;444.08;39.47;;;;;;;;;;5071257;28;20907;-76
2023/12/03 04:16:24;;;;;;;333.20;32.40;;;;;;;;;;5071041;28;20864;-76
2023/12/03 04:18:50;;;;;;;306.40;34.58;;;;;;;;;;5078437;28;20889;-76
2023/12/03 04:21:17;;;;;;;334.75;35.33;;;;;;;;;;5070914;28;20416;-75
2023/12/03 04:23:43;;;;;;;509.95;49.58;;;;;;;;;;5071443;28;20796;-76
2023/12/03 04:26:09;;;;;;;327.73;36.47;;;;;;;;;;5071447;28;20482;-76
2023/12/03 04:28:36;;;;;;;460.25;45.80;;;;;;;;;;5067906;28;20424;-76
2023/12/03 04:31:02;;;;;;;390.60;38.53;;;;;;;;;;5082305;28;20426;-75
2023/12/03 04:33:28;;;;;;;1324.75;134.73;;;;;;;;;;5079008;28;20475;-75
2023/12/03 04:35:54;;;;;;;472.50;43.70;;;;;;;;;;5053733;28;20404;-76
2023/12/03 04:38:20;;;;;;;485.73;45.17;;;;;;;;;;5083308;28;20407;-75
2023/12/03 04:40:46;;;;;;;576.03;51.33;;;;;;;;;;5070625;28;20403;-75
2023/12/03 04:43:12;;;;;;;664.55;64.25;;;;;;;;;;5068962;28;20511;-75
2023/12/03 04:45:38;;;;;;;728.70;68.32;;;;;;;;;;5053770;28;20400;-76
2023/12/03 04:48:05;;;;;;;739.53;72.10;;;;;;;;;;5037913;28;20400;-76
2023/12/03 04:50:31;;;;;;;700.30;69.10;;;;;;;;;;5070713;28;20440;-75
2023/12/03 04:52:57;;;;;;;650.87;63.30;;;;;;;;;;5083968;28;20957;-74
2023/12/03 04:55:23;;;;;;;634.50;70.93;;;;;;;;;;5086829;28;20473;-75
2023/12/03 04:57:49;;;;;;;711.72;77.63;;;;;;;;;;5055390;28;20400;-75
2023/12/03 05:00:15;;;;;;;733.83;83.68;;;;;;;;;;5068243;28;20428;-75
2023/12/03 05:02:43;;;;;;;990.22;110.95;;;;;;;;;;5070066;28;20735;-76
2023/12/03 05:05:09;;;;;;;792.47;92.50;;;;;;;;;;5053373;28;20410;-76
2023/12/03 05:07:35;;;;;;;734.63;82.83;;;;;;;;;;5071851;28;20991;-75
2023/12/03 05:10:01;;;;;;;715.42;83.97;;;;;;;;;;5089721;28;20735;-75
2023/12/03 05:12:27;;;;;;;862.35;101.53;;;;;;;;;;5059490;28;20849;-76
2023/12/03 05:14:53;;;;;;;809.33;95.18;;;;;;;;;;5086511;28;20403;-82
2023/12/03 05:17:19;;;;;;;780.95;95.32;;;;;;;;;;5093837;28;20425;-82
2023/12/03 05:19:45;;;;;;;748.67;89.40;;;;;;;;;;5053785;28;20412;-82
2023/12/03 05:22:11;;;;;;;1005.90;119.30;;;;;;;;;;5070545;28;20733;-82
2023/12/03 05:24:37;;;;;;;770.25;97.13;;;;;;;;;;5070644;28;20410;-82
2023/12/03 05:27:04;;;;;;;735.28;94.53;;;;;;;;;;5055561;28;20404;-82
2023/12/03 05:29:30;;;;;;;709.75;90.43;;;;;;;;;;5070535;28;20407;-82
2023/12/03 05:31:56;;;;;;;891.10;107.88;;;;;;;;;;5082329;28;20425;-75
2023/12/03 05:34:22;;;;;;;824.92;104.10;;;;;;;;;;5069520;28;20427;-75
2023/12/03 05:36:48;;;;;;;1705.32;192.05;;;;;;;;;;5074873;28;20572;-75
2023/12/03 05:39:15;;;;;;;827.80;117.05;;;;;;;;;;5072606;28;20407;-75
2023/12/03 05:41:41;;;;;;;1288.50;166.37;;;;;;;;;;5056363;28;20420;-75
2023/12/03 05:44:08;;;;;;;840.95;120.22;;;;;;;;;;5051608;28;20420;-75
2023/12/03 05:46:40;;;;;;;1461.28;184.02;;;;;;;;;;5075925;28;20559;-75
2023/12/03 05:49:08;;;;;;;1529.20;190.30;;;;;;;;;;5085211;28;20429;-75
2023/12/03 05:51:34;;;;;;;1999.90;304.30;;;;;;;;;;5107678;28;20509;-75
2023/12/03 05:54:00;;;;;;;959.42;140.77;;;;;;;;;;5073360;28;20446;-75
2023/12/03 05:56:26;;;;;;;1007.40;149.13;;;;;;;;;;5069103;28;20915;-75
2023/12/03 05:58:52;;;;;;;869.45;129.60;;;;;;;;;;5096551;28;20781;-74
2023/12/03 06:01:25;;;;;;;1051.07;145.37;;;;;;;;;;5081524;28;20758;-74
2023/12/03 06:03:51;;;;;;;862.90;123.65;;;;;;;;;;5071257;28;20461;-74
2023/12/03 06:06:17;;;;;;;1999.90;291.13;;;;;;;;;;5085666;28;20435;-74
2023/12/03 06:08:44;;;;;;;1129.03;147.80;;;;;;;;;;5069516;28;20465;-74
2023/12/03 06:11:10;;;;;;;848.58;117.97;;;;;;;;;;5087052;28;20822;-74
2023/12/03 06:13:36;;;;;;;1999.90;240.10;;;;;;;;;;5072517;28;20420;-74
2023/12/03 06:16:02;;;;;;;1804.95;216.98;;;;;;;;;;5074386;28;20428;-82
2023/12/03 06:18:29;;;;;;;1920.72;217.68;;;;;;;;;;5075384;28;20400;-82
2023/12/03 06:20:55;;;;;;;1222.97;141.05;;;;;;;;;;5073214;28;20899;-82
2023/12/03 06:23:21;;;;;;;1102.68;135.07;;;;;;;;;;5073748;28;20396;-82
2023/12/03 06:25:47;;;;;;;774.03;96.43;;;;;;;;;;5085383;28;20538;-82
2023/12/03 06:28:14;;;;;;;978.05;114.75;;;;;;;;;;5077229;28;20410;-75
2023/12/03 06:30:40;;;;;;;750.72;104.28;;;;;;;;;;5072494;28;20415;-74
2023/12/03 06:33:06;;;;;;;691.92;102.72;;;;;;;;;;5072666;28;20420;-82
2023/12/03 06:35:32;;;;;;;701.30;102.47;;;;;;;;;;5055381;28;20400;-82
2023/12/03 06:37:59;;;;;;;1991.50;232.95;;;;;;;;;;5053616;28;20409;-82
2023/12/03 06:40:25;;;;;;;775.67;114.00;;;;;;;;;;5072269;28;20404;-83
2023/12/03 06:42:51;;;;;;;967.07;120.03;;;;;;;;;;5093081;28;20487;-82
2023/12/03 06:45:17;;;;;;;664.03;86.93;;;;;;;;;;5081704;28;20519;-81
2023/12/03 06:47:43;;;;;;;578.60;75.13;;;;;;;;;;5068227;28;20543;-82
2023/12/03 06:50:09;;;;;;;520.42;65.97;;;;;;;;;;5072128;28;20412;-82
2023/12/03 06:52:36;;;;;;;839.13;93.97;;;;;;;;;;5071904;28;20442;-82
2023/12/03 06:55:03;;;;;;;684.38;77.88;;;;;;;;;;5089637;28;20898;-82
2023/12/03 06:57:29;;;;;;;504.52;62.47;;;;;;;;;;5064298;28;20419;-81
2023/12/03 06:59:55;;;;;;;473.52;61.20;;;;;;;;;;5070047;28;20403;-81
2023/12/03 07:02:21;;;;;;;433.25;58.72;;;;;;;;;;5072729;28;20408;-80
2023/12/03 07:04:47;;;;;;;506.50;66.55;;;;;;;;;;5082907;28;20427;-82
2023/12/03 07:07:13;;;;;;;460.23;62.85;;;;;;;;;;5077266;28;20404;-82
2023/12/03 07:09:40;;;;;;;424.75;58.60;;;;;;;;;;5095052;27;20429;-81
2023/12/03 07:12:06;;;;;;;398.30;58.10;;;;;;;;;;5076721;28;20493;-81
2023/12/03 07:14:32;;;;;;;409.63;58.85;;;;;;;;;;5071782;28;20424;-81
2023/12/03 07:16:58;;;;;;;466.52;66.93;;;;;;;;;;5090537;28;20395;-81
2023/12/03 07:19:24;;;;;;;478.17;71.73;;;;;;;;;;5055320;28;20434;-82
2023/12/03 07:21:50;;;;;;;485.55;72.80;;;;;;;;;;5055693;28;20409;-80
2023/12/03 07:24:16;;;;;;;771.25;103.28;;;;;;;;;;5066744;28;20411;-82
2023/12/03 07:26:45;;;;;;;462.67;63.85;;;;;;;;;;5079628;28;20410;-82
2023/12/03 07:29:11;;;;;;;457.95;64.68;;;;;;;;;;5057068;28;20411;-82
2023/12/03 07:31:38;;;;;;;412.75;53.83;;;;;;;;;;5072178;28;20419;-80
2023/12/03 07:34:04;;;;;;;544.95;62.47;;;;;;;;;;5080988;28;20411;-82
2023/12/03 07:36:30;;;;;;;245.85;35.53;;;;;;;;;;5071930;28;20392;-82
2023/12/03 07:38:56;;;;;;;226.18;34.65;;;;;;;;;;5071593;28;20431;-82
2023/12/03 07:41:22;;;;;;;235.48;35.25;;;;;;;;;;5083309;28;20463;-82
2023/12/03 07:43:48;;;;;;;321.13;40.90;;;;;;;;;;5048882;28;20895;-81
2023/12/03 07:46:17;;;;;;;237.20;37.47;;;;;;;;;;5076337;28;20407;-81
2023/12/03 07:48:44;;;;;;;224.10;36.03;;;;;;;;;;5101304;28;20402;-81
2023/12/03 07:51:10;;;;;;;226.25;36.80;;;;;;;;;;5049496;28;20421;-81
2023/12/03 07:53:36;;;;;;;379.17;47.13;;;;;;;;;;5098779;27;20431;-81
2023/12/03 07:56:03;;;;;;;347.38;45.25;;;;;;;;;;5079787;28;20444;-82
2023/12/03 07:58:29;;;;;;;212.95;36.50;;;;;;;;;;5074363;28;20422;-82
2023/12/03 08:00:55;;;;;;;200.27;36.23;;;;;;;;;;5056300;28;20554;-82
2023/12/03 08:03:21;;;;;;;412.80;48.58;;;;;;;;;;5070814;28;20436;-82
2023/12/03 08:05:48;;;;;;;258.10;40.40;;;;;;;;;;5061080;28;20409;-81
2023/12/03 08:08:14;;;;;;;164.90;33.95;;;;;;;;;;5069252;28;20395;-80
2023/12/03 08:10:40;;;;;;;152.68;33.83;;;;;;;;;;5070311;28;20396;-81
2023/12/03 08:13:06;;;;;;;191.77;37.70;;;;;;;;;;5078616;28;20930;-81
2023/12/03 08:15:32;;;;;;;727.60;77.10;;;;;;;;;;5074272;28;20961;-80
2023/12/03 08:17:58;;;;;;;168.02;39.15;;;;;;;;;;5054597;28;20422;-81
2023/12/03 08:20:24;;;;;;;164.37;41.47;;;;;;;;;;5073758;28;20412;-81
2023/12/03 08:22:50;;;;;;;151.73;39.92;;;;;;;;;;5061507;28;20411;-81
2023/12/03 08:25:16;;;;;;;513.08;68.10;;;;;;;;;;5087296;28;20418;-81
2023/12/03 08:27:43;;;;;;;167.70;41.72;;;;;;;;;;5079760;28;20534;-72
2023/12/03 08:30:09;;;;;;;155.45;40.63;;;;;;;;;;5068197;28;20399;-74
2023/12/03 08:32:35;;;;;;;248.97;48.23;;;;;;;;;;5069046;28;20982;-74
2023/12/03 08:35:01;;;;;;;210.23;45.30;;;;;;;;;;5053468;28;20423;-74
2023/12/03 08:37:27;;;;;;;175.32;44.03;;;;;;;;;;5071361;28;20509;-75
2023/12/03 08:39:54;;;;;;;177.20;43.42;;;;;;;;;;5070028;28;20407;-74
2023/12/03 08:42:20;;;;;;;191.05;44.40;;;;;;;;;;5069366;28;20415;-74
2023/12/03 08:44:46;;;;;;;347.55;55.00;;;;;;;;;;5052738;28;20690;-74
2023/12/03 08:47:13;;;;;;;177.93;44.78;;;;;;;;;;5069793;28;20440;-75
2023/12/03 08:49:40;;;;;;;183.77;44.97;;;;;;;;;;5058051;28;20435;-73
2023/12/03 08:52:07;;;;;;;163.27;45.17;;;;;;;;;;5069393;28;20427;-73
2023/12/03 08:54:35;;;;;;;200.32;46.42;;;;;;;;;;5069174;28;20504;-73
2023/12/03 08:57:02;;;;;;;161.45;43.60;;;;;;;;;;5071323;28;20411;-73
2023/12/03 08:59:28;;;;;;;173.75;44.60;;;;;;;;;;5039639;28;20464;-73
2023/12/03 09:01:54;;;;;;;151.90;43.50;;;;;;;;;;5080212;28;20456;-73
2023/12/03 09:04:20;;;;;;;146.75;44.03;;;;;;;;;;5044266;28;21027;-73
2023/12/03 09:06:46;;;;;;;156.97;43.80;;;;;;;;;;5068497;28;20891;-74
2023/12/03 09:09:13;;;;;;;133.30;43.17;;;;;;;;;;5068509;28;21001;-73
2023/12/03 09:11:43;;;;;;;136.90;42.88;;;;;;;;;;5065541;28;20429;-73
2023/12/03 09:14:10;;;;;;;132.32;43.38;;;;;;;;;;5063211;28;20453;-75
2023/12/03 09:16:36;;;;;;;131.15;41.85;;;;;;;;;;5068663;28;20447;-74
2023/12/03 09:19:02;;;;;;;126.47;42.65;;;;;;;;;;5051967;28;20439;-74
2023/12/03 09:21:28;;;;;;;126.95;44.97;;;;;;;;;;5067134;28;20507;-74
2023/12/03 09:23:56;;;;;;;117.63;43.22;;;;;;;;;;5066058;28;20457;-74
2023/12/03 09:26:22;;;;;;;121.23;43.30;;;;;;;;;;5068531;28;20461;-74
2023/12/03 09:28:48;;;;;;;121.15;45.53;;;;;;;;;;5075825;28;20822;-75
2023/12/03 09:31:14;;;;;;;112.03;44.55;;;;;;;;;;5101748;28;20783;-74
2023/12/03 09:33:40;;;;;;;120.28;48.75;;;;;;;;;;5054368;28;20423;-74
2023/12/03 09:36:07;;;;;;;132.57;49.30;;;;;;;;;;5053384;28;20478;-74
2023/12/03 09:38:34;;;;;;;134.20;51.78;;;;;;;;;;5064488;28;20418;-75
2023/12/03 09:41:01;;;;;;;128.35;47.85;;;;;;;;;;5052064;28;20407;-74
2023/12/03 09:43:27;;;;;;;113.60;45.27;;;;;;;;;;5089747;28;20402;-74
2023/12/03 09:45:56;;;;;;;131.57;46.92;;;;;;;;;;5075018;28;20415;-74
2023/12/03 09:48:23;;;;;;;103.97;45.10;;;;;;;;;;5072593;28;20411;-75
2023/12/03 09:50:50;;;;;;;106.17;44.30;;;;;;;;;;5072681;28;20411;-74
2023/12/03 09:53:19;;;;;;;103.00;43.17;;;;;;;;;;5072908;28;20435;-74
2023/12/03 09:55:45;;;;;;;187.90;49.40;;;;;;;;;;5089146;28;20404;-74
2023/12/03 09:58:15;;;;;;;102.18;43.20;;;;;;;;;;5072070;28;20410;-75
2023/12/03 10:00:41;;;;;;;98.22;43.25;;;;;;;;;;5073081;28;20403;-75
2023/12/03 10:03:08;;;;;;;108.15;43.60;;;;;;;;;;5105612;28;20440;-75
2023/12/03 10:05:34;;;;;;;119.90;44.08;;;;;;;;;;5062223;28;20401;-74
2023/12/03 10:08:02;;;;;;;92.70;40.08;;;;;;;;;;5057412;28;20403;-74
2023/12/03 10:10:32;;;;;;;90.95;41.75;;;;;;;;;;5077758;28;20839;-82
2023/12/03 10:12:59;;;;;;;86.90;40.80;;;;;;;;;;5073213;28;20927;-74
2023/12/03 10:15:25;;;;;;;82.28;38.35;;;;;;;;;;5072279;28;20913;-75
2023/12/03 10:17:52;;;;;;;72.72;36.47;;;;;;;;;;5078565;28;20407;-75
2023/12/03 10:20:26;;;;;;;73.22;36.00;;;;;;;;;;5072647;28;20461;-75
2023/12/03 10:22:52;;;;;;;63.55;34.03;;;;;;;;;;5072717;28;20483;-75
2023/12/03 10:25:35;;;;;;;65.45;34.55;;;;;;;;;;5044692;28;20827;-74
2023/12/03 10:28:02;;;;;;;64.93;34.40;;;;;;;;;;5088221;28;20831;-74
2023/12/03 10:30:28;;;;;;;61.45;34.65;;;;;;;;;;5072346;28;20411;-75
2023/12/03 10:32:55;;;;;;;58.63;33.57;;;;;;;;;;5072263;28;20588;-75
2023/12/03 10:35:24;;;;;;;61.97;33.45;;;;;;;;;;5071595;28;20406;-75
2023/12/03 10:37:51;;;;;;;57.05;32.70;;;;;;;;;;5071463;28;20786;-75
2023/12/03 10:40:18;;;;;;;52.03;30.63;;;;;;;;;;5057455;28;20492;-75
2023/12/03 10:42:44;;;;;;;53.93;32.03;;;;;;;;;;5062020;28;20482;-75
2023/12/03 10:45:12;;;;;;;61.17;32.23;;;;;;;;;;5068993;28;20473;-76
2023/12/03 10:47:39;;;;;;;59.38;32.22;;;;;;;;;;5068493;28;20424;-77
2023/12/03 10:50:05;;;;;;;55.88;31.13;;;;;;;;;;5086330;28;20411;-76
2023/12/03 10:52:32;;;;;;;55.28;31.88;;;;;;;;;;5084335;28;20431;-76
2023/12/03 10:54:59;;;;;;;58.53;33.57;;;;;;;;;;5069596;28;20447;-77
2023/12/03 10:57:29;;;;;;;54.88;31.17;;;;;;;;;;5068941;28;20404;-76
2023/12/03 11:00:17;;;;;;;50.58;30.55;;;;;;;;;;5073975;28;20406;-76
2023/12/03 11:02:47;;;;;;;54.20;30.45;;;;;;;;;;5055819;28;20407;-75
2023/12/03 11:05:22;;;;;;;51.30;31.33;;;;;;;;;;5072606;28;20456;-75
2023/12/03 11:07:49;;;;;;;52.17;31.05;;;;;;;;;;5055804;28;20485;-75
2023/12/03 11:10:15;;;;;;;50.47;30.08;;;;;;;;;;5089166;28;20430;-75
2023/12/03 11:12:41;;;;;;;50.05;30.17;;;;;;;;;;5071058;28;20419;-73
2023/12/03 11:15:08;;;;;;;46.53;29.20;;;;;;;;;;5103333;28;20489;-74
2023/12/03 11:17:40;;;;;;;48.28;27.95;;;;;;;;;;5071204;28;20457;-74
2023/12/03 11:20:08;;;;;;;50.22;29.75;;;;;;;;;;5071111;28;20415;-74
2023/12/03 11:22:37;;;;;;;46.00;29.30;;;;;;;;;;5071465;28;20523;-75
2023/12/03 11:25:10;;;;;;;44.47;27.48;;;;;;;;;;5071123;28;20460;-75
2023/12/03 11:27:40;;;;;;;46.95;27.25;;;;;;;;;;5088112;28;20442;-74
2023/12/03 11:30:06;;;;;;;46.88;28.35;;;;;;;;;;5086433;28;20424;-75
2023/12/03 11:32:32;;;;;;;48.47;30.05;;;;;;;;;;5086587;28;20423;-75
2023/12/03 11:35:15;;;;;;;50.20;30.08;;;;;;;;;;5070475;28;20419;-74
2023/12/03 11:37:43;;;;;;;50.22;29.80;;;;;;;;;;5072005;28;20502;-75
2023/12/03 11:40:29;;;;;;;46.92;28.60;;;;;;;;;;5070562;28;20415;-76
2023/12/03 11:42:55;;;;;;;45.92;27.02;;;;;;;;;;5070624;28;20407;-76
2023/12/03 11:45:23;;;;;;;47.60;29.30;;;;;;;;;;5087784;28;20411;-76
2023/12/03 11:48:06;;;;;;;43.58;25.38;;;;;;;;;;5061512;28;20793;-76
2023/12/03 11:50:34;;;;;;;41.53;24.42;;;;;;;;;;5063999;28;20991;-76
2023/12/03 11:53:00;;;;;;;43.95;25.75;;;;;;;;;;5070361;28;20415;-76
2023/12/03 11:55:27;;;;;;;44.53;26.70;;;;;;;;;;5085627;28;20407;-75
2023/12/03 11:57:54;;;;;;;37.47;24.63;;;;;;;;;;5053254;28;20817;-76
2023/12/03 12:00:24;;;;;;;42.45;24.40;;;;;;;;;;5070184;28;20410;-78
2023/12/03 12:02:50;;;;;;;40.58;23.83;;;;;;;;;;5077149;28;20407;-76
2023/12/03 12:05:16;;;;;;;52.80;26.55;;;;;;;;;;5070830;28;20907;-75
2023/12/03 12:07:42;;;;;;;42.80;25.05;;;;;;;;;;5087272;28;20407;-77
2023/12/03 12:10:08;;;;;;;40.42;23.65;;;;;;;;;;5088308;28;20415;-77
2023/12/03 12:12:34;;;;;;;42.00;24.75;;;;;;;;;;5071245;28;20416;-77
2023/12/03 12:15:01;;;;;;;38.03;24.95;;;;;;;;;;5086770;28;20412;-77
2023/12/03 12:17:27;;;;;;;42.78;24.55;;;;;;;;;;5068722;28;20420;-76
2023/12/03 12:19:55;;;;;;;39.78;25.00;;;;;;;;;;5075873;28;20401;-76
2023/12/03 12:22:21;;;;;;;39.88;25.15;;;;;;;;;;5089519;28;20448;-76
2023/12/03 12:24:47;;;;;;;42.78;26.27;;;;;;;;;;5074517;28;20434;-76
2023/12/03 12:27:14;;;;;;;39.92;24.65;;;;;;;;;;5074365;28;20413;-76
2023/12/03 12:29:40;;;;;;;42.60;25.42;;;;;;;;;;5057040;28;20895;-76
2023/12/03 12:32:06;;;;;;;46.67;25.83;;;;;;;;;;5064157;28;20449;-76
2023/12/03 12:34:33;;;;;;;42.88;25.85;;;;;;;;;;5061299;28;20419;-76
2023/12/03 12:37:03;;;;;;;43.80;26.58;;;;;;;;;;5071558;28;20810;-77
2023/12/03 12:39:29;;;;;;;43.08;26.48;;;;;;;;;;5070527;28;20404;-77
2023/12/03 12:41:59;;;;;;;45.40;27.67;;;;;;;;;;5053578;28;20695;-77
2023/12/03 12:44:38;;;;;;;46.25;27.27;;;;;;;;;;5070364;28;20408;-77
2023/12/03 12:47:04;;;;;;;47.70;27.20;;;;;;;;;;5054003;28;20419;-76
2023/12/03 12:49:30;;;;;;;48.08;27.90;;;;;;;;;;5069875;28;20870;-76
2023/12/03 12:52:17;;;;;;;52.15;29.10;;;;;;;;;;5054204;28;20427;-76
2023/12/03 12:54:46;;;;;;;50.13;29.30;;;;;;;;;;5089328;28;20410;-76
2023/12/03 12:57:13;;;;;;;48.75;27.58;;;;;;;;;;5067210;28;20403;-76
2023/12/03 12:59:39;;;;;;;49.72;29.10;;;;;;;;;;5086116;28;20525;-76
2023/12/03 13:02:07;;;;;;;49.67;30.23;;;;;;;;;;5053334;28;20407;-76
2023/12/03 13:04:33;;;;;;;50.92;28.77;;;;;;;;;;5085042;28;20918;-77
2023/12/03 13:07:01;;;;;;;55.30;30.95;;;;;;;;;;5073851;28;20429;-76
2023/12/03 13:09:27;;;;;;;51.37;29.83;;;;;;;;;;5081066;28;20404;-76
2023/12/03 13:11:53;;;;;;;50.40;29.23;;;;;;;;;;5053268;28;20450;-76
2023/12/03 13:14:20;;;;;;;49.92;29.25;;;;;;;;;;5087954;28;20414;-77
2023/12/03 13:16:46;;;;;;;53.00;29.65;;;;;;;;;;5052392;28;20428;-76
2023/12/03 13:19:12;;;;;;;53.25;31.48;;;;;;;;;;5070616;28;20477;-77
2023/12/03 13:21:38;;;;;;;56.80;33.17;;;;;;;;;;5057359;28;20899;-76
2023/12/03 13:24:04;;;;;;;57.63;33.00;;;;;;;;;;5073989;28;20449;-77
2023/12/03 13:26:30;;;;;;;56.97;32.13;;;;;;;;;;5074198;28;20851;-77
2023/12/03 13:28:56;;;;;;;55.65;30.08;;;;;;;;;;5057307;28;20400;-76
2023/12/03 13:31:22;;;;;;;55.10;31.58;;;;;;;;;;5073838;28;20440;-76
2023/12/03 13:33:48;;;;;;;54.13;30.43;;;;;;;;;;5081456;28;20504;-77
2023/12/03 13:36:14;;;;;;;53.80;30.65;;;;;;;;;;5075705;28;20401;-76
2023/12/03 13:38:40;;;;;;;56.08;30.45;;;;;;;;;;5062933;28;20402;-77
2023/12/03 13:41:07;;;;;;;50.77;30.40;;;;;;;;;;5057158;28;20891;-77
2023/12/03 13:43:33;;;;;;;51.60;29.88;;;;;;;;;;5057164;28;20448;-77
2023/12/03 13:45:59;;;;;;;54.55;30.30;;;;;;;;;;5073770;28;20399;-77
2023/12/03 13:48:25;;;;;;;50.88;28.58;;;;;;;;;;5072163;28;20420;-77
2023/12/03 13:50:51;;;;;;;46.60;27.40;;;;;;;;;;5057397;28;20407;-83
2023/12/03 13:53:17;;;;;;;41.15;25.67;;;;;;;;;;5053655;28;20429;-77
2023/12/03 13:55:44;;;;;;;55.17;26.92;;;;;;;;;;5037272;28;20470;-76
2023/12/03 13:58:10;;;;;;;44.63;25.38;;;;;;;;;;5091136;28;20451;-77
2023/12/03 14:00:36;;;;;;;42.92;25.63;;;;;;;;;;5060553;28;20820;-77
2023/12/03 14:03:02;;;;;;;40.88;23.65;;;;;;;;;;5074153;28;20798;-77
2023/12/03 14:05:29;;;;;;;43.58;24.63;;;;;;;;;;5074754;28;20395;-77